Pagrindinis puslapis
METAR-TAF:

METAR-TAF

Oro uostai :

Marianhamina, Suomija

platuma: 60-07N, ilguma: 019-54E, Aukštis: 6 m

Dabartinis oras

Ataskaita buvo paskelbta 28 minutes, ne 17:20 UTC
Vėjas 3 kt iš Šiaurės/Šiaurės Rytų
Temperatūra -1°C
Drėgmė 86%
Slėgis 1039 hPa
Matomumas 10 km arba daugiau

METAR: EFMA 191720Z AUTO 02003KT 9999 NCD M01/M03 Q1039

Laikas: 19:48 (17:48 UTC)

Prognozė

Ataskaita buvo paskelbta 3 valandos ir 25 minutes, ne 14:23 UTC
Prognozė galioja nuo 19 metu 15 UTC su 19 metu 24 UTC
Vėjas 4 kt iš Šiaurės/Šiaurės Rytų
Matomumas 10 km arba daugiau
Su prošvaistėmis ne aukštis 2500 ft

TAF: EFMA 191423Z 1915/1924 02004KT 9999 BKN025

Orai ataskaitas ir orų prognozės (METAR, TAF).

turimą stotys yra geltonos ir raudonos taškus žemėlapyje.

Perkelti pele per norėdami pamatyti stoties vardą.

Tada spustelėkite, norėdami matyti oro stebėjimo ir prognozės.

Norėdami pakeisti žemėlapį: spustelėkite ant žalios mygtukų su juodo kryžiaus žemyn,; žalią mygtuką su brūkšneliu, jei norite nutolinti; arba žalių rodyklių gretimoms žemėlapius.


METAR-TAF: